Long Neck, Delaware
Current Conditions -  °F | °C
As of 9:54 AM on Tuesday 21 Oct 2014 (Local Time) from KGED Reporting Station
Few Clouds Few Clouds  
Wind Chill: 61°   Ceiling: Unl
Heat Index: 61°   Visibility: 10mi
Dew Point: 56°   Wind: 6mph
Humidity: 83%   Direction: 230°SW
Pressure: 29.89"   Gusts: NA
Location:  38.5762°N, 75.3072°W
Report Text: KGED 211354Z AUTO 23005KT 10SM FEW080 FEW110 16/13 A2989 RMK AO2 RAB25E30 SLP120 P0000 T01610133
Loading
Personal Weather Stations






























Interactive Weather Map
Tropical Storm Tracking
New forecast layout! Learn more

10-Day Weather Forecast

Advertisements
Track Severe Weather on mobile